Time;durP1;ratioP1;P1;durP2;ratioP2;P2;SDS_P1;SDS_P2;PMS_P1;PMS_P2;Temp;Humidity;BMP_temperature;BMP_pressure;BME280_temperature;BME280_humidity;BME280_pressure;Samples;Min_cycle;Max_cycle;Signal;HPM_P1;HPM_P2
2023/01/09 00:00:30;;;;;;;;;1.50;1.50;;;;;3.86;93.66;98769.69;4834809;29;45317;-90
2023/01/09 00:03:04;;;;;;;;;1.75;0.75;;;;;4.64;93.32;98889.19;4818869;29;45584;-91
2023/01/09 00:05:45;;;;;;;;;0.50;0.00;;;;;4.43;93.73;98870.47;4829204;29;46639;-91
2023/01/09 00:11:32;;;;;;;;;0.25;0.25;;;;;5.59;94.16;99068.66;4815518;29;45539;-91
2023/01/09 00:14:43;;;;;;;;;0.75;0.75;;;;;4.68;93.91;98917.03;4815169;29;45507;-90
2023/01/09 00:17:20;;;;;;;;;1.25;0.00;;;;;5.47;94.57;99056.69;4827934;29;46658;-90
2023/01/09 00:19:49;;;;;;;;;0.00;0.00;;;;;5.04;94.36;99010.50;4819207;29;45412;-91
2023/01/09 00:22:30;;;;;;;;;0.25;0.25;;;;;5.58;94.17;99108.84;4820118;29;45534;-91
2023/01/09 00:24:59;;;;;;;;;1.25;0.00;;;;;4.65;94.49;98934.53;4820353;29;45005;-91
2023/01/09 00:27:32;;;;;;;;;0.00;0.00;;;;;4.98;94.60;98975.69;4831075;29;47061;-90
2023/01/09 00:30:06;;;;;;;;;2.50;0.25;;;;;4.59;94.70;98906.75;4832330;29;45398;-91
2023/01/09 00:35:31;;;;;;;;;2.00;1.00;;;;;4.55;94.45;98926.03;4830223;29;45369;-90
2023/01/09 00:38:02;;;;;;;;;0.00;0.00;;;;;4.99;94.81;98987.03;4828142;29;46886;-91
2023/01/09 00:40:37;;;;;;;;;1.00;1.00;;;;;4.66;94.14;98917.94;4828101;29;45341;-92
2023/01/09 00:43:18;;;;;;;;;;;;;;;;;;;;;
2023/01/09 00:45:45;;;;;;;;;2.00;1.00;;;;;5.93;94.72;99118.50;4831755;29;68686;-91
2023/01/09 00:48:43;;;;;;;;;0.00;0.00;;;;;5.72;94.17;99079.69;4822500;29;47141;-90
2023/01/09 00:51:15;;;;;;;;;0.75;0.75;;;;;4.40;94.08;98881.00;4839614;29;45326;-92
2023/01/09 00:53:42;;;;;;;;;2.00;0.50;;;;;5.06;93.90;98983.38;4831131;29;45516;-91
2023/01/09 00:56:37;;;;;;;;;1.00;1.00;;;;;4.30;93.96;98862.91;4819794;29;45354;-92
2023/01/09 00:59:06;;;;;;;;;0.75;0.75;;;;;3.86;93.99;98790.63;4835090;29;47246;-91
2023/01/09 01:01:35;;;;;;;;;0.00;0.00;;;;;5.04;94.43;98985.19;4821163;29;44763;-92
2023/01/09 01:09:42;;;;;;;;;;;;;;;;;;;;;
2023/01/09 01:12:34;;;;;;;;;1.75;1.00;;;;;5.97;93.61;99148.19;4835267;29;71991;-91
2023/01/09 01:15:08;;;;;;;;;0.00;0.00;;;;;4.92;93.67;98983.69;4822047;29;45424;-91
2023/01/09 01:17:41;;;;;;;;;3.25;1.00;;;;;5.98;94.37;99170.88;4835764;29;45444;-91
2023/01/09 01:20:24;;;;;;;;;1.00;1.00;;;;;5.54;94.06;99065.25;4832426;29;47381;-92
2023/01/09 01:22:53;;;;;;;;;2.00;1.00;;;;;5.22;93.56;99027.56;4832640;29;45940;-91
2023/01/09 01:25:25;;;;;;;;;1.00;1.00;;;;;4.30;94.46;98873.38;4819815;29;45439;-91
2023/01/09 01:27:54;;;;;;;;;1.00;0.00;;;;;5.53;94.28;99080.13;4817880;29;44872;-91
2023/01/09 01:30:22;;;;;;;;;1.00;1.00;;;;;4.18;93.85;98861.44;4832009;29;47039;-91
2023/01/09 01:32:48;;;;;;;;;2.00;0.00;;;;;4.19;94.21;98850.94;4815275;29;45408;-91
2023/01/09 01:35:19;;;;;;;;;1.00;1.00;;;;;5.97;95.10;99185.78;4816585;29;45324;-91
2023/01/09 01:37:45;;;;;;;;;1.00;1.00;;;;;4.94;94.92;99028.16;4817058;29;45309;-91
2023/01/09 01:40:25;;;;;;;;;1.50;1.00;;;;;4.65;94.47;98969.44;4813520;29;46483;-91
2023/01/09 01:42:55;;;;;;;;;2.50;1.50;;;;;4.22;93.71;98894.44;4810832;29;45515;-92
2023/01/09 01:45:34;;;;;;;;;2.50;1.25;;;;;5.24;94.10;99067.66;4814793;29;45513;-92
2023/01/09 01:48:12;;;;;;;;;1.00;1.00;;;;;5.03;94.25;99027.97;4817691;29;45424;-90
2023/01/09 01:51:06;;;;;;;;;0.75;0.50;;;;;4.60;94.22;98947.72;4829048;29;47835;-90
2023/01/09 01:53:41;;;;;;;;;3.00;1.00;;;;;4.83;93.29;98999.59;4830024;29;45549;-91
2023/01/09 01:56:30;;;;;;;;;1.25;0.75;;;;;3.67;93.13;98784.03;4815161;29;45430;-89
2023/01/09 01:59:48;;;;;;;;;0.75;0.75;;;;;5.95;93.93;99191.91;4815252;29;45477;-89
2023/01/09 02:02:28;;;;;;;;;2.00;1.00;;;;;5.52;94.23;99089.72;4806988;29;46581;-90
2023/01/09 02:04:55;;;;;;;;;2.00;2.00;;;;;5.98;94.65;99170.88;4813484;29;45587;-90
2023/01/09 02:07:54;;;;;;;;;2.00;0.75;;;;;5.97;94.86;99163.94;4793309;29;45523;-90
2023/01/09 02:10:32;;;;;;;;;0.25;0.25;;;;;5.39;94.42;99076.94;4793172;29;45617;-90
2023/01/09 02:13:08;;;;;;;;;0.25;0.25;;;;;4.83;94.01;98985.63;4794065;29;46821;-90
2023/01/09 02:15:56;;;;;;;;;3.25;1.00;;;;;5.15;94.15;99084.47;4800274;29;45443;-90
2023/01/09 02:18:32;;;;;;;;;1.50;1.00;;;;;5.96;94.76;99176.13;4821864;29;45303;-91
2023/01/09 02:21:48;;;;;;;;;1.75;0.00;;;;;5.95;94.02;99186.66;4812457;29;45172;-91
2023/01/09 02:24:57;;;;;;;;;1.50;1.00;;;;;5.95;94.09;99182.28;4834695;29;47200;-91
2023/01/09 02:27:45;;;;;;;;;0.50;0.50;;;;;4.77;94.04;98977.03;4830537;29;45376;-92
2023/01/09 02:30:45;;;;;;;;;1.25;1.25;;;;;4.70;94.32;98967.56;4829402;29;45414;-92
2023/01/09 02:33:16;;;;;;;;;1.00;0.00;;;;;5.65;94.38;99158.50;4813285;29;45375;-92
2023/01/09 02:36:18;;;;;;;;;1.00;0.00;;;;;5.95;94.86;99186.66;4828090;29;45492;-91
2023/01/09 02:38:44;;;;;;;;;3.50;1.50;;;;;5.87;94.84;99171.97;4815395;29;45453;-91
2023/01/09 02:41:42;;;;;;;;;3.00;1.00;;;;;5.97;94.88;99206.75;4835622;29;45261;-91
2023/01/09 02:44:25;;;;;;;;;1.75;0.75;;;;;5.52;94.68;99144.78;4838777;29;44862;-91
2023/01/09 02:47:19;;;;;;;;;1.25;0.75;;;;;5.99;94.39;99204.94;4841221;29;46177;-91
2023/01/09 02:49:58;;;;;;;;;1.25;1.25;;;;;6.01;95.00;99216.28;4829923;29;45441;-91
2023/01/09 02:52:58;;;;;;;;;1.00;0.00;;;;;5.26;94.18;99082.47;4830745;29;45228;-92
2023/01/09 02:55:43;;;;;;;;;0.75;0.00;;;;;4.52;94.76;98960.97;4812996;29;45458;-92
2023/01/09 02:58:57;;;;;;;;;4.75;1.00;;;;;6.07;94.71;99209.16;4809087;29;46630;-91
2023/01/09 03:01:36;;;;;;;;;1.75;1.00;;;;;4.85;94.07;98981.25;4826593;29;45818;-91
2023/01/09 04:54:20;;;;;;;;;1.00;1.00;;;;;5.37;93.96;99073.50;4858639;29;45233;-95
2023/01/09 05:00:14;;;;;;;;;;;;;;;;;;;;;
2023/01/09 10:18:46;;;;;;;;;1.75;0.25;;;;;9.03;85.75;99702.25;2105396;23;46126;-92
2023/01/09 10:21:36;;;;;;;;;4.00;1.00;;;;;8.84;84.78;99672.03;4833468;29;46486;-92
2023/01/09 10:24:43;;;;;;;;;1.00;0.00;;;;;7.55;84.39;99458.59;4834594;29;45494;-93
2023/01/09 10:27:49;;;;;;;;;0.00;0.00;;;;;9.26;84.63;99721.81;4829295;29;45246;-92
2023/01/09 10:30:52;;;;;;;;;1.00;0.00;;;;;9.33;84.17;99727.81;4817973;29;44879;-93
2023/01/09 10:33:50;;;;;;;;;0.00;0.00;;;;;7.62;84.40;99480.34;4844715;29;46644;-92
2023/01/09 10:37:12;;;;;;;;;1.00;0.00;;;;;9.29;83.57;99724.38;4829665;29;44730;-90
2023/01/09 10:39:58;;;;;;;;;0.00;0.00;;;;;9.26;83.06;99742.91;4793884;29;44837;-92
2023/01/09 11:05:02;;;;;;;;;0.00;0.00;;;;;7.94;82.92;99412.88;5205223;23;45382;-90
2023/01/09 11:07:35;;;;;;;;;0.75;0.00;;;;;10.13;80.81;99763.25;4848821;29;45567;-92
2023/01/09 11:10:15;;;;;;;;;0.00;0.00;;;;;9.22;81.94;99612.09;4850093;29;47303;-92
2023/01/09 11:12:41;;;;;;;;;0.50;0.00;;;;;9.64;82.22;99659.19;4858643;29;45661;-92
2023/01/09 12:36:36;;;;;;;;;1.00;0.25;;;;;12.85;76.26;99787.88;4057099;23;45899;-93
2023/01/09 12:59:49;;;;;;;;;0.25;0.00;;;;;10.45;79.66;99827.44;5275873;23;47052;-96
2023/01/09 13:02:24;;;;;;;;;1.25;0.00;;;;;10.28;80.66;99824.44;4840823;29;44775;-96
2023/01/09 13:04:56;;;;;;;;;2.75;0.00;;;;;9.05;80.26;99684.63;4856404;29;45415;-95
2023/01/09 13:07:37;;;;;;;;;0.00;0.00;;;;;8.61;79.18;99606.78;4852735;29;45184;-95
2023/01/09 13:10:47;;;;;;;;;1.00;1.00;;;;;9.81;80.12;99848.69;4840854;29;45704;-95
2023/01/09 13:57:44;;;;;;;;;0.75;0.00;;;;;6.54;84.10;99538.84;5069398;23;46375;-94
2023/01/09 14:03:27;;;;;;;;;0.00;0.00;;;;;8.67;85.04;99944.69;4855995;29;45383;-94
2023/01/09 14:06:26;;;;;;;;;;;;;;;;;;;;;
2023/01/09 14:09:47;;;;;;;;;0.00;0.00;;;;;6.58;86.79;99645.50;4808521;29;67679;-94
2023/01/09 14:12:30;;;;;;;;;1.00;1.00;;;;;8.31;87.85;99983.19;4784841;29;45049;-94
2023/01/09 14:15:33;;;;;;;;;0.00;0.00;;;;;7.05;88.62;99770.75;4770196;29;46535;-94
2023/01/09 14:18:42;;;;;;;;;0.50;0.00;;;;;8.11;87.92;99968.66;4767603;29;45314;-94
2023/01/09 14:24:56;;;;;;;;;;;;;;;;;;;;;
2023/01/09 14:28:21;;;;;;;;;0.00;0.00;;;;;7.83;88.32;99968.28;4786644;29;75133;-94
2023/01/09 14:31:09;;;;;;;;;1.00;1.00;;;;;7.80;88.43;99981.50;4792827;29;44901;-94
2023/01/09 14:34:22;;;;;;;;;;;;;;;;;;;;;
2023/01/09 16:31:41;;;;;;;;;0.75;0.00;;;;;5.76;88.90;100094.41;682701;23;46365;-85
2023/01/09 16:34:18;;;;;;;;;0.50;0.00;;;;;6.02;89.75;100132.72;4833947;29;45035;-94
2023/01/09 17:03:18;;;;;;;;;1.00;0.00;;;;;4.25;89.25;99901.53;4951911;23;45317;-95
2023/01/09 17:06:37;;;;;;;;;1.75;1.00;;;;;5.18;88.62;100068.59;4842692;29;45621;-96
